Time;durP1;ratioP1;P1;durP2;ratioP2;P2;SDS_P1;SDS_P2;PMS_P1;PMS_P2;Temp;Humidity;BMP_temperature;BMP_pressure;BME280_temperature;BME280_humidity;BME280_pressure;Samples;Min_cycle;Max_cycle;Signal;HPM_P1;HPM_P2
2022/03/17 00:00:13;;;;;;;23.48;13.20;;;;;;;5.02;100.00;98284.31;4963701;28;20053;-92
2022/03/17 00:02:39;;;;;;;22.60;13.43;;;;;;;5.02;100.00;98275.50;4949884;28;20027;-91
2022/03/17 00:05:10;;;;;;;23.27;13.05;;;;;;;4.92;100.00;98290.81;4973946;28;20077;-90
2022/03/17 00:07:40;;;;;;;19.27;12.40;;;;;;;4.89;100.00;98302.34;4958106;28;20034;-91
2022/03/17 00:10:07;;;;;;;20.20;12.25;;;;;;;4.84;100.00;98314.88;4944086;28;20088;-92
2022/03/17 00:12:33;;;;;;;33.55;20.00;;;;;;;4.85;100.00;98306.00;4965427;28;20046;-91
2022/03/17 00:14:59;;;;;;;24.33;14.60;;;;;;;4.86;100.00;98291.81;4954062;28;20046;-91
2022/03/17 00:17:26;;;;;;;28.20;16.02;;;;;;;4.83;100.00;98307.81;4949063;28;20034;-91
2022/03/17 00:19:52;;;;;;;26.98;15.48;;;;;;;4.67;100.00;98290.59;4948588;28;20466;-90
2022/03/17 00:22:18;;;;;;;27.52;15.65;;;;;;;4.81;100.00;98303.47;4961410;28;20041;-93
2022/03/17 00:24:44;;;;;;;26.90;15.75;;;;;;;4.78;100.00;98300.91;4950331;28;20118;-91
2022/03/17 00:27:10;;;;;;;28.08;15.63;;;;;;;4.72;100.00;98303.72;4973814;28;20037;-91
2022/03/17 00:29:36;;;;;;;24.20;15.48;;;;;;;4.79;100.00;98297.34;4941727;28;20034;-90
2022/03/17 00:32:03;;;;;;;29.73;16.40;;;;;;;4.87;100.00;98316.56;4946221;28;20030;-91
2022/03/17 00:34:29;;;;;;;27.00;15.90;;;;;;;4.67;100.00;98284.44;4945243;28;20030;-92
2022/03/17 00:36:54;;;;;;;29.67;17.58;;;;;;;4.83;100.00;98307.81;4949499;28;20613;-92
2022/03/17 00:39:21;;;;;;;28.25;17.75;;;;;;;4.89;100.00;98307.63;4961790;28;20003;-92
2022/03/17 00:41:47;;;;;;;33.97;19.48;;;;;;;4.78;100.00;98303.56;4929707;28;20499;-91
2022/03/17 00:44:12;;;;;;;35.17;20.25;;;;;;;4.72;100.00;98296.63;4950699;28;20035;-92
2022/03/17 00:46:39;;;;;;;36.70;21.10;;;;;;;4.91;100.00;98305.84;4960554;28;20473;-92
2022/03/17 00:49:05;;;;;;;34.88;20.02;;;;;;;4.83;100.00;98301.63;4944278;28;20048;-92
2022/03/17 00:51:31;;;;;;;36.70;21.50;;;;;;;4.87;100.00;98304.19;4953160;28;20026;-91
2022/03/17 00:53:56;;;;;;;41.78;22.27;;;;;;;4.74;100.00;98281.56;4936801;29;20146;-92
2022/03/17 00:56:22;;;;;;;36.13;21.92;;;;;;;4.91;100.00;98327.03;4922107;29;20443;-90
2022/03/17 00:58:48;;;;;;;38.67;23.08;;;;;;;4.78;100.00;98304.44;4922543;29;20059;-90
2022/03/17 01:01:17;;;;;;;33.97;20.83;;;;;;;4.84;100.00;98330.75;4938257;29;20024;-90
2022/03/17 01:03:44;;;;;;;34.13;20.48;;;;;;;4.39;100.00;98300.19;4938542;29;20032;-90
2022/03/17 01:06:10;;;;;;;36.50;20.73;;;;;;;4.62;100.00;98313.69;4923337;29;20031;-90
2022/03/17 01:08:36;;;;;;;32.00;18.88;;;;;;;4.62;100.00;98312.81;4922378;29;20031;-92
2022/03/17 01:11:02;;;;;;;35.60;20.40;;;;;;;4.53;100.00;98318.34;4922618;29;20036;-92
2022/03/17 01:13:28;;;;;;;37.58;19.38;;;;;;;4.45;100.00;98289.41;4939314;29;20046;-91
2022/03/17 01:15:53;;;;;;;34.35;20.15;;;;;;;4.62;100.00;98308.38;4939116;29;20032;-92
2022/03/17 01:18:21;;;;;;;36.47;20.08;;;;;;;4.57;100.00;98305.00;4938577;29;20032;-93
2022/03/17 01:20:48;;;;;;;33.42;19.85;;;;;;;4.62;100.00;98308.38;4923611;29;20495;-92
2022/03/17 01:23:13;;;;;;;34.50;17.77;;;;;;;4.13;100.00;98254.94;4923571;29;20023;-93
2022/03/17 01:25:39;;;;;;;33.78;19.00;;;;;;;4.19;100.00;98265.38;4939016;29;20095;-92
2022/03/17 01:28:05;;;;;;;33.85;18.77;;;;;;;4.41;100.00;98313.34;4923264;29;20106;-91
2022/03/17 01:30:30;;;;;;;34.88;19.98;;;;;;;4.43;100.00;98317.69;4938386;29;20114;-91
2022/03/17 01:32:56;;;;;;;34.40;19.00;;;;;;;4.31;100.00;98302.13;4921680;29;20515;-93
2022/03/17 01:35:22;;;;;;;30.58;19.15;;;;;;;4.50;100.00;98324.59;4953964;28;20038;-92
2022/03/17 01:37:47;;;;;;;36.63;19.75;;;;;;;4.34;100.00;98299.41;4938563;29;20408;-92
2022/03/17 01:40:13;;;;;;;36.53;20.63;;;;;;;4.34;100.00;98304.69;4937701;29;20031;-92
2022/03/17 01:42:39;;;;;;;36.03;20.00;;;;;;;4.44;100.00;98313.28;4924913;29;20114;-92
2022/03/17 01:45:06;;;;;;;32.25;18.88;;;;;;;4.25;100.00;98297.84;4938228;29;20038;-92
2022/03/17 01:47:33;;;;;;;32.47;18.70;;;;;;;4.48;100.00;98341.44;4921369;29;20036;-93
2022/03/17 01:50:11;;;;;;;33.75;19.85;;;;;;;4.38;100.00;98356.69;4922204;29;20559;-91
2022/03/17 01:52:38;;;;;;;37.65;19.52;;;;;;;4.24;100.00;98342.94;4922078;29;20058;-93
2022/03/17 01:55:05;;;;;;;35.90;18.55;;;;;;;4.30;100.00;98330.41;4922125;29;20043;-92
2022/03/17 01:57:31;;;;;;;33.75;19.30;;;;;;;4.19;100.00;98324.47;4922066;29;20032;-93
2022/03/17 01:59:58;;;;;;;39.13;20.05;;;;;;;4.24;100.00;98319.97;4923270;29;20059;-93
2022/03/17 02:02:25;;;;;;;40.20;20.00;;;;;;;3.91;100.00;98270.47;4923317;29;20401;-93
2022/03/17 02:04:51;;;;;;;37.35;20.92;;;;;;;4.29;100.00;98322.50;4922735;29;20067;-93
2022/03/17 02:07:16;;;;;;;37.90;20.13;;;;;;;4.42;100.00;98352.19;4922610;29;20027;-93
2022/03/17 02:09:44;;;;;;;35.70;19.42;;;;;;;4.19;100.00;98318.31;4923842;29;20042;-93
2022/03/17 02:18:46;;;;;;;31.27;17.98;;;;;;;4.30;100.00;98362.19;4938253;29;20563;-93
2022/03/17 02:21:11;;;;;;;36.53;20.00;;;;;;;4.29;100.00;98363.09;4921868;29;20063;-93
2022/03/17 02:26:21;;;;;;;36.78;19.17;;;;;;;4.31;100.00;98371.84;4951450;28;20122;-93
2022/03/17 02:28:47;;;;;;;34.95;17.73;;;;;;;4.36;100.00;98375.28;4938253;29;20028;-92
2022/03/17 02:31:12;;;;;;;31.95;16.90;;;;;;;4.19;100.00;98348.31;4938017;29;20114;-91
2022/03/17 02:33:40;;;;;;;34.53;16.80;;;;;;;4.11;100.00;98336.16;4922659;29;20046;-93
2022/03/17 02:36:08;;;;;;;32.85;17.70;;;;;;;4.13;100.00;98351.09;4938410;29;20040;-93
2022/03/17 02:38:33;;;;;;;35.90;18.25;;;;;;;4.30;100.00;98369.25;4923345;29;20059;-91
2022/03/17 02:40:59;;;;;;;33.25;17.98;;;;;;;4.21;100.00;98366.81;4925088;29;20028;-91
2022/03/17 02:43:25;;;;;;;35.20;18.80;;;;;;;4.15;100.00;98351.09;4924836;29;20127;-91
2022/03/17 02:45:51;;;;;;;35.20;18.13;;;;;;;4.37;100.00;98381.41;4940831;29;20059;-91
2022/03/17 02:48:16;;;;;;;34.78;18.15;;;;;;;4.31;100.00;98365.69;4924826;29;20123;-91
2022/03/17 02:50:42;;;;;;;34.28;17.63;;;;;;;4.34;100.00;98360.31;4925428;29;20039;-92
2022/03/17 02:53:10;;;;;;;35.88;18.73;;;;;;;4.32;100.00;98364.78;4933996;28;20066;-94
2022/03/17 02:55:36;;;;;;;40.60;19.63;;;;;;;4.26;100.00;98362.28;4964570;28;20023;-92
2022/03/17 02:58:04;;;;;;;34.42;17.65;;;;;;;4.37;100.00;98387.59;4964515;28;20076;-91
2022/03/17 03:00:30;;;;;;;33.85;17.50;;;;;;;4.33;100.00;98385.06;4978785;28;20030;-93
2022/03/17 03:02:55;;;;;;;29.45;16.63;;;;;;;4.19;100.00;98372.13;4964135;28;20495;-93
2022/03/17 03:05:22;;;;;;;29.33;15.70;;;;;;;4.07;100.00;98369.78;4964900;28;20039;-92
2022/03/17 03:07:48;;;;;;;27.67;15.27;;;;;;;4.08;100.00;98375.94;4964325;28;20030;-92
2022/03/17 03:10:14;;;;;;;28.67;15.35;;;;;;;3.99;100.00;98355.00;4964893;28;20141;-93
2022/03/17 03:12:40;;;;;;;28.35;14.18;;;;;;;4.03;100.00;98375.19;4964455;28;20030;-91
2022/03/17 03:15:07;;;;;;;28.23;14.75;;;;;;;3.95;100.00;98377.13;4980157;28;20030;-93
2022/03/17 03:17:33;;;;;;;32.25;14.20;;;;;;;4.08;100.00;98391.84;4964648;28;20030;-93
2022/03/17 03:19:59;;;;;;;24.08;13.75;;;;;;;4.03;100.00;98386.63;4980342;28;20057;-93
2022/03/17 03:22:29;;;;;;;23.77;13.85;;;;;;;4.07;100.00;98395.38;4963585;28;20023;-92
2022/03/17 03:24:56;;;;;;;25.90;13.63;;;;;;;4.03;100.00;98388.44;4965446;28;20027;-93
2022/03/17 03:27:27;;;;;;;21.92;12.30;;;;;;;4.16;100.00;98389.88;4951115;28;20126;-93
2022/03/17 03:29:56;;;;;;;22.13;12.75;;;;;;;4.21;100.00;98395.94;4964866;28;20094;-92
2022/03/17 03:32:22;;;;;;;23.80;13.07;;;;;;;4.12;100.00;98393.50;4963828;28;20042;-91
2022/03/17 03:34:48;;;;;;;25.08;12.18;;;;;;;4.16;100.00;98403.97;4963018;28;20034;-92
2022/03/17 03:37:23;;;;;;;30.77;15.80;;;;;;;4.26;100.00;98420.53;4946155;28;20026;-91
2022/03/17 03:39:53;;;;;;;24.70;14.07;;;;;;;4.17;100.00;98399.56;4979701;28;20025;-91
2022/03/17 03:42:23;;;;;;;26.17;14.02;;;;;;;4.13;100.00;98424.34;4979222;28;20034;-93
2022/03/17 03:45:25;;;;;;;23.42;12.43;;;;;;;4.07;100.00;98401.53;4981005;28;20093;-91
2022/03/17 03:47:43;;;;;;;24.17;13.20;;;;;;;3.80;100.00;98368.63;4940948;29;20110;-92
2022/03/17 03:50:09;;;;;;;26.15;13.95;;;;;;;3.99;100.00;98394.69;4922807;29;20488;-91
2022/03/17 03:52:35;;;;;;;25.33;13.25;;;;;;;4.13;100.00;98429.66;4940524;29;20036;-93
2022/03/17 03:55:01;;;;;;;25.50;13.90;;;;;;;4.10;100.00;98425.31;4923365;29;20563;-92
2022/03/17 03:57:27;;;;;;;27.10;13.73;;;;;;;3.95;100.00;98387.72;4923275;29;20035;-92
2022/03/17 03:59:53;;;;;;;31.13;15.88;;;;;;;4.04;100.00;98408.69;4923801;29;20043;-92
2022/03/17 04:02:19;;;;;;;31.45;15.68;;;;;;;4.09;100.00;98428.84;4924548;29;20056;-92
2022/03/17 04:04:44;;;;;;;26.38;14.98;;;;;;;3.89;100.00;98394.00;4917389;29;20070;-92
2022/03/17 04:07:11;;;;;;;34.15;17.30;;;;;;;3.99;100.00;98400.84;4938563;29;20031;-92
2022/03/17 04:09:41;;;;;;;28.35;15.25;;;;;;;4.02;100.00;98410.50;4923128;29;20464;-93
2022/03/17 04:12:09;;;;;;;30.65;15.50;;;;;;;4.22;100.00;98440.03;4905646;29;20039;-93
2022/03/17 04:14:35;;;;;;;33.45;18.73;;;;;;;4.05;100.00;98419.25;4922822;29;20037;-92
2022/03/17 04:17:01;;;;;;;34.13;17.70;;;;;;;4.06;100.00;98444.78;4923552;29;20090;-92
2022/03/17 04:19:27;;;;;;;31.65;16.95;;;;;;;4.14;100.00;98448.16;4923224;29;20094;-92
2022/03/17 04:21:53;;;;;;;37.47;19.10;;;;;;;3.98;100.00;98424.69;4907891;29;20147;-92
2022/03/17 04:24:21;;;;;;;33.10;17.55;;;;;;;4.07;100.00;98450.97;4929286;28;20046;-92
2022/03/17 04:26:47;;;;;;;36.20;19.13;;;;;;;4.12;100.00;98460.53;4942778;29;20031;-91
2022/03/17 04:29:13;;;;;;;35.17;18.58;;;;;;;3.84;100.00;98447.03;4943257;28;20027;-91
2022/03/17 04:31:40;;;;;;;32.08;16.92;;;;;;;3.62;100.00;98448.38;4965881;28;20026;-92
2022/03/17 04:34:07;;;;;;;35.22;18.27;;;;;;;3.61;100.00;98446.63;4963140;28;20085;-93
2022/03/17 04:36:33;;;;;;;31.80;17.25;;;;;;;3.78;100.00;98457.72;4947564;28;20046;-92
2022/03/17 04:38:59;;;;;;;33.58;17.45;;;;;;;3.92;100.00;98480.41;4946263;28;20026;-90
2022/03/17 04:41:26;;;;;;;32.17;17.65;;;;;;;3.75;100.00;98484.25;4947691;28;20069;-88
2022/03/17 04:43:52;;;;;;;37.40;18.92;;;;;;;3.67;100.00;98454.44;4946913;28;20133;-89
2022/03/17 04:46:18;;;;;;;35.40;19.83;;;;;;;3.81;100.00;98480.63;4970114;28;20487;-90
2022/03/17 04:48:43;;;;;;;37.83;19.73;;;;;;;3.65;100.00;98474.78;4970505;28;20042;-90
2022/03/17 04:51:09;;;;;;;36.90;19.35;;;;;;;3.42;100.00;98461.09;4948622;28;20068;-91
2022/03/17 04:53:35;;;;;;;38.33;19.95;;;;;;;3.46;100.00;98478.66;4944423;28;20050;-89
2022/03/17 04:56:09;;;;;;;43.20;21.60;;;;;;;3.59;100.00;98497.81;4970375;28;20388;-91
2022/03/17 04:58:36;;;;;;;41.72;21.52;;;;;;;3.59;100.00;98506.63;4946759;28;20029;-91
2022/03/17 05:01:03;;;;;;;45.60;23.05;;;;;;;3.55;100.00;98504.94;4965030;28;20026;-91
2022/03/17 05:03:32;;;;;;;40.35;22.05;;;;;;;3.65;100.00;98495.94;4965902;28;20033;-92
2022/03/17 05:05:59;;;;;;;46.70;22.90;;;;;;;3.65;100.00;98522.41;4955828;28;20039;-92
2022/03/17 05:08:25;;;;;;;41.28;21.88;;;;;;;3.57;100.00;98505.78;4959330;28;20058;-91
2022/03/17 05:10:56;;;;;;;39.35;21.73;;;;;;;3.44;100.00;98485.78;4973232;28;20155;-91
2022/03/17 05:13:43;;;;;;;40.53;21.73;;;;;;;3.65;100.00;98525.03;4952905;28;20546;-92
2022/03/17 05:16:46;;;;;;;55.90;29.67;;;;;;;3.77;100.00;98532.75;4981075;28;20042;-89
2022/03/17 05:19:12;;;;;;;41.80;23.75;;;;;;;3.61;100.00;98514.53;4973460;28;20547;-79
2022/03/17 05:21:47;;;;;;;47.70;24.38;;;;;;;3.56;100.00;98496.13;4964787;28;20073;-91
2022/03/17 05:24:13;;;;;;;49.50;25.98;;;;;;;3.54;100.00;98500.53;4956248;28;20035;-89
2022/03/17 05:26:39;;;;;;;50.85;25.60;;;;;;;3.64;100.00;98535.63;4967796;28;20026;-91
2022/03/17 05:29:06;;;;;;;46.42;24.33;;;;;;;3.55;100.00;98526.09;4968577;28;20027;-88
2022/03/17 05:31:31;;;;;;;48.55;25.52;;;;;;;3.61;100.00;98547.16;4953665;28;20114;-89
2022/03/17 05:33:57;;;;;;;51.38;27.13;;;;;;;3.49;100.00;98547.38;4959049;28;20521;-89
2022/03/17 05:36:25;;;;;;;55.50;30.42;;;;;;;3.35;100.00;98546.75;4963454;28;20035;-90
2022/03/17 05:38:51;;;;;;;52.40;28.73;;;;;;;3.47;100.00;98559.75;4974749;28;20030;-88
2022/03/17 05:41:16;;;;;;;52.85;27.60;;;;;;;3.40;100.00;98547.53;4944289;28;20034;-90
2022/03/17 05:43:42;;;;;;;52.35;28.02;;;;;;;3.45;100.00;98550.97;4944361;28;20046;-89
2022/03/17 05:46:08;;;;;;;91.53;39.97;;;;;;;3.27;100.00;98533.66;4971976;28;20529;-89
2022/03/17 05:48:33;;;;;;;56.53;29.17;;;;;;;3.08;100.00;98555.13;4953721;28;20039;-90
2022/03/17 05:50:59;;;;;;;54.72;29.33;;;;;;;2.80;100.00;98527.41;4969562;28;20026;-90
2022/03/17 05:53:24;;;;;;;77.88;35.15;;;;;;;2.98;100.00;98533.28;4949524;28;20050;-89
2022/03/17 05:55:50;;;;;;;66.07;30.58;;;;;;;3.27;100.00;98578.59;4968157;28;20035;-89
2022/03/17 05:58:16;;;;;;;66.05;30.38;;;;;;;3.29;100.00;98583.88;4951409;28;20324;-89
2022/03/17 06:00:41;;;;;;;67.22;33.70;;;;;;;3.16;100.00;98577.91;4958462;28;20071;-89
2022/03/17 06:03:13;;;;;;;76.47;35.60;;;;;;;3.36;100.00;98601.34;4947208;28;20019;-90
2022/03/17 06:05:39;;;;;;;46.28;24.20;;;;;;;3.35;100.00;98602.28;4957732;28;20050;-91
2022/03/17 06:08:05;;;;;;;70.63;32.47;;;;;;;3.21;100.00;98583.97;4961139;28;20344;-87
2022/03/17 06:10:32;;;;;;;68.78;34.28;;;;;;;3.41;100.00;98611.88;4959080;28;20038;-90
2022/03/17 06:13:00;;;;;;;71.63;33.05;;;;;;;3.10;100.00;98564.78;4947523;28;20066;-89
2022/03/17 06:15:26;;;;;;;69.38;32.75;;;;;;;3.26;100.00;98610.38;4955474;28;20038;-88
2022/03/17 06:18:03;;;;;;;73.72;34.47;;;;;;;3.20;100.00;98607.78;4973496;28;20161;-90
2022/03/17 06:20:31;;;;;;;75.63;35.05;;;;;;;2.95;100.00;98601.16;4960329;28;20486;-89
2022/03/17 06:22:59;;;;;;;68.82;32.83;;;;;;;2.85;100.00;98620.66;4971533;28;20027;-88
2022/03/17 06:25:26;;;;;;;75.40;35.30;;;;;;;2.98;100.00;98636.34;4941710;28;20037;-89
2022/03/17 06:27:52;;;;;;;77.93;36.75;;;;;;;2.88;100.00;98616.22;4972746;28;20027;-88
2022/03/17 06:30:23;;;;;;;76.57;36.65;;;;;;;3.08;100.00;98613.25;4953683;28;20498;-88
2022/03/17 06:32:50;;;;;;;73.57;35.97;;;;;;;3.27;100.00;98627.94;4957945;28;20816;-89
2022/03/17 06:35:18;;;;;;;71.80;35.83;;;;;;;3.35;100.00;98636.66;4941459;28;20367;-90
2022/03/17 06:37:48;;;;;;;66.60;33.60;;;;;;;3.50;100.00;98639.03;4956737;28;20038;-90
2022/03/17 06:40:16;;;;;;;71.32;35.90;;;;;;;3.50;100.00;98639.03;4970635;28;20042;-89
2022/03/17 06:42:42;;;;;;;83.18;42.85;;;;;;;3.29;100.00;98631.47;4949428;28;20039;-90
2022/03/17 06:45:08;;;;;;;67.22;32.28;;;;;;;3.54;100.00;98648.66;4949756;28;20087;-89
2022/03/17 06:47:34;;;;;;;67.32;34.30;;;;;;;3.48;100.00;98646.13;4956867;28;20030;-89
2022/03/17 06:50:04;;;;;;;70.43;35.08;;;;;;;3.46;100.00;98632.06;4952468;28;20030;-89
2022/03/17 06:52:29;;;;;;;66.40;34.67;;;;;;;3.58;100.00;98641.53;4954075;28;20030;-89
2022/03/17 06:54:55;;;;;;;69.20;35.42;;;;;;;3.64;100.00;98646.72;4958465;28;20205;-89
2022/03/17 06:57:23;;;;;;;59.92;30.50;;;;;;;3.54;100.00;98656.59;4949888;28;20085;-89
2022/03/17 06:59:49;;;;;;;65.88;32.42;;;;;;;3.54;100.00;98672.47;4948751;28;20521;-90
2022/03/17 07:02:16;;;;;;;49.03;25.63;;;;;;;3.43;100.00;98669.13;4952007;28;20026;-88
2022/03/17 07:04:42;;;;;;;50.67;26.52;;;;;;;3.40;100.00;98655.06;4951535;28;20058;-89
2022/03/17 07:07:07;;;;;;;60.30;28.92;;;;;;;3.34;100.00;98658.69;4976606;28;20023;-89
2022/03/17 07:09:33;;;;;;;50.25;26.73;;;;;;;3.37;100.00;98663.94;4967609;28;20038;-87
2022/03/17 07:11:59;;;;;;;55.38;26.60;;;;;;;3.26;100.00;98677.31;4973535;28;20399;-89
2022/03/17 07:14:25;;;;;;;53.42;26.80;;;;;;;3.29;100.00;98682.53;4944344;28;20023;-88
2022/03/17 07:16:50;;;;;;;45.40;23.15;;;;;;;3.22;100.00;98683.56;4948245;28;20057;-87
2022/03/17 07:19:17;;;;;;;47.70;24.40;;;;;;;2.95;100.00;98665.44;4962059;28;20118;-88
2022/03/17 07:21:42;;;;;;;44.92;22.45;;;;;;;3.07;100.00;98682.91;4940908;28;20054;-88
2022/03/17 07:24:09;;;;;;;38.78;20.80;;;;;;;3.00;100.00;98673.28;4974595;28;20431;-89
2022/03/17 07:26:35;;;;;;;37.08;19.63;;;;;;;2.96;100.00;98687.44;4972000;28;20034;-89
2022/03/17 07:29:04;;;;;;;37.97;20.95;;;;;;;3.06;100.00;98700.50;4952104;28;20101;-89
2022/03/17 07:31:30;;;;;;;45.92;24.25;;;;;;;2.99;100.00;98688.28;4964884;28;20089;-89
2022/03/17 07:34:19;;;;;;;35.63;20.45;;;;;;;3.17;100.00;98700.34;4944528;28;20034;-90
2022/03/17 07:36:44;;;;;;;32.20;17.77;;;;;;;2.92;100.00;98694.56;4968064;28;20138;-89
2022/03/17 07:39:10;;;;;;;39.15;21.17;;;;;;;2.93;100.00;98713.91;4945471;28;20086;-89
2022/03/17 07:41:36;;;;;;;38.95;21.40;;;;;;;3.01;100.00;98712.06;4972205;28;20089;-89
2022/03/17 07:44:02;;;;;;;48.17;23.88;;;;;;;2.91;100.00;98705.13;4944154;28;20059;-89
2022/03/17 07:46:27;;;;;;;33.53;18.98;;;;;;;2.80;100.00;98713.19;4976352;28;20483;-89
2022/03/17 07:48:53;;;;;;;35.08;19.95;;;;;;;2.85;100.00;98716.66;4975455;28;20050;-89
2022/03/17 07:51:20;;;;;;;38.33;19.92;;;;;;;2.83;100.00;98728.16;4973717;28;20135;-90
2022/03/17 07:53:46;;;;;;;35.40;18.67;;;;;;;2.82;100.00;98710.53;4973948;28;20046;-90
2022/03/17 07:56:12;;;;;;;40.25;20.95;;;;;;;2.89;100.00;98728.06;4960934;28;20126;-90
2022/03/17 07:58:39;;;;;;;36.08;16.70;;;;;;;2.74;100.00;98708.84;4964541;28;20038;-89
2022/03/17 08:01:05;;;;;;;30.70;17.02;;;;;;;2.66;100.00;98716.00;4951567;28;20403;-90
2022/03/17 08:03:32;;;;;;;30.27;17.02;;;;;;;2.60;100.00;98734.56;4956304;28;20034;-88
2022/03/17 08:05:59;;;;;;;34.35;17.75;;;;;;;2.61;100.00;98720.47;4978560;28;20418;-88
2022/03/17 08:08:25;;;;;;;36.33;19.98;;;;;;;2.62;100.00;98716.94;4948975;28;20035;-76
2022/03/17 08:10:50;;;;;;;32.55;18.15;;;;;;;2.85;100.00;98731.63;4961239;28;20545;-77
2022/03/17 08:13:16;;;;;;;29.75;16.02;;;;;;;2.90;100.00;98729.78;4947244;28;20031;-80
2022/03/17 08:15:43;;;;;;;30.25;14.50;;;;;;;2.92;100.00;98728.03;4970617;28;20113;-76
2022/03/17 08:18:08;;;;;;;21.55;11.98;;;;;;;2.79;100.00;98726.41;4954320;28;20033;-78
2022/03/17 08:20:39;;;;;;;25.35;14.43;;;;;;;2.73;100.00;98728.25;4961193;28;20031;-78
2022/03/17 08:23:05;;;;;;;26.60;14.65;;;;;;;2.90;100.00;98743.00;4962202;28;20070;-75
2022/03/17 08:25:31;;;;;;;33.00;17.55;;;;;;;2.95;100.00;98741.19;4967317;28;20033;-82
2022/03/17 08:27:57;;;;;;;31.67;17.02;;;;;;;2.90;100.00;98735.06;4959044;28;20034;-82
2022/03/17 08:30:22;;;;;;;27.85;15.55;;;;;;;2.86;100.00;98734.22;4956827;28;20030;-83
2022/03/17 08:32:49;;;;;;;33.55;18.20;;;;;;;2.80;100.00;98736.09;4939465;28;20037;-82
2022/03/17 08:35:17;;;;;;;29.35;16.30;;;;;;;2.93;100.00;98757.06;4970562;28;20030;-82
2022/03/17 08:37:45;;;;;;;27.40;15.52;;;;;;;2.84;100.00;98759.81;4960714;28;20038;-82
2022/03/17 08:40:12;;;;;;;32.17;18.67;;;;;;;2.80;100.00;98760.72;4945573;28;20027;-82
2022/03/17 08:42:39;;;;;;;32.05;18.02;;;;;;;2.77;100.00;98746.72;4971790;28;20035;-83
2022/03/17 08:49:18;;;;;;;30.92;17.20;;;;;;;2.96;100.00;98756.13;4955799;28;20030;-82
2022/03/17 08:50:34;;;;;;;31.20;18.20;;;;;;;3.16;100.00;98764.72;4971369;28;20414;-82
2022/03/17 08:53:00;;;;;;;32.95;16.85;;;;;;;3.19;100.00;98764.66;4956228;28;20054;-82
2022/03/17 08:55:26;;;;;;;33.50;19.48;;;;;;;2.98;100.00;98773.75;4964030;28;20042;-82
2022/03/17 08:57:51;;;;;;;36.03;18.65;;;;;;;2.90;100.00;98774.72;4956623;28;20104;-83
2022/03/17 09:00:17;;;;;;;42.10;25.23;;;;;;;2.88;100.00;98773.88;4969813;28;20035;-83
2022/03/17 09:02:44;;;;;;;33.08;17.75;;;;;;;2.72;100.00;98774.03;4970294;28;20123;-82
2022/03/17 09:05:11;;;;;;;28.88;16.15;;;;;;;2.59;100.00;98777.69;4959437;28;20058;-83
2022/03/17 09:07:36;;;;;;;31.20;17.45;;;;;;;2.63;100.00;98775.91;4945897;28;20041;-83
2022/03/17 09:10:05;;;;;;;32.70;18.48;;;;;;;2.73;100.00;98777.56;4953757;28;20407;-83
2022/03/17 09:12:33;;;;;;;32.22;18.10;;;;;;;2.84;100.00;98788.00;4938702;28;20117;-84
2022/03/17 09:14:59;;;;;;;27.80;15.98;;;;;;;2.65;100.00;98776.75;4948846;28;20028;-83
2022/03/17 09:17:25;;;;;;;30.23;16.30;;;;;;;2.71;100.00;98782.84;4963593;28;20506;-83
2022/03/17 09:19:51;;;;;;;32.45;15.77;;;;;;;2.65;100.00;98782.91;4945669;28;20026;-83
2022/03/17 09:22:16;;;;;;;30.23;15.13;;;;;;;2.68;100.00;98771.44;4962034;28;20035;-82
2022/03/17 09:24:45;;;;;;;33.80;19.08;;;;;;;2.78;100.00;98782.78;4943378;28;20065;-84
2022/03/17 09:27:11;;;;;;;29.50;15.50;;;;;;;2.97;100.00;98795.78;4967695;28;20027;-84
2022/03/17 09:29:40;;;;;;;37.55;18.83;;;;;;;2.98;100.00;98792.25;4969663;28;20023;-81
2022/03/17 09:32:06;;;;;;;27.05;14.88;;;;;;;2.99;100.00;98793.09;4965760;28;20457;-82
2022/03/17 09:34:32;;;;;;;24.73;12.77;;;;;;;3.02;100.00;98806.28;4937346;28;20027;-82
2022/03/17 09:36:58;;;;;;;31.38;16.40;;;;;;;2.94;100.00;98808.13;4939009;28;20031;-82
2022/03/17 09:39:45;;;;;;;30.55;16.60;;;;;;;3.04;100.00;98815.97;4953642;28;20118;-82
2022/03/17 09:42:15;;;;;;;29.30;15.82;;;;;;;3.07;100.00;98815.94;4962761;28;20402;-83
2022/03/17 09:44:42;;;;;;;29.00;16.00;;;;;;;3.04;100.00;98808.03;4938529;28;20576;-82
2022/03/17 09:47:09;;;;;;;31.85;15.85;;;;;;;2.87;100.00;98803.81;4939618;28;20137;-83
2022/03/17 09:49:37;;;;;;;30.17;16.05;;;;;;;2.87;100.00;98814.38;4969423;28;20050;-82
2022/03/17 09:52:10;;;;;;;31.55;17.48;;;;;;;2.79;100.00;98813.59;4943122;29;20034;-82
2022/03/17 09:54:37;;;;;;;32.38;16.88;;;;;;;2.62;100.00;98809.38;4938777;28;20597;-82
2022/03/17 09:57:04;;;;;;;43.88;20.65;;;;;;;2.70;100.00;98811.94;4936936;28;20065;-82
2022/03/17 09:59:30;;;;;;;40.88;21.08;;;;;;;2.56;100.00;98805.91;4953032;28;20093;-82
2022/03/17 10:01:57;;;;;;;41.30;20.15;;;;;;;2.80;100.00;98818.00;4938190;28;20027;-76
2022/03/17 10:04:23;;;;;;;50.65;24.40;;;;;;;2.93;100.00;98830.16;4950079;28;20027;-75
2022/03/17 10:06:49;;;;;;;46.92;22.85;;;;;;;2.84;100.00;98838.19;4965876;28;20031;-77
2022/03/17 10:09:16;;;;;;;38.63;18.95;;;;;;;2.75;100.00;98833.88;4975139;28;20026;-76
2022/03/17 10:11:42;;;;;;;40.60;19.05;;;;;;;2.79;100.00;98829.44;4960565;28;20064;-77
2022/03/17 10:14:08;;;;;;;32.67;17.58;;;;;;;2.63;100.00;98839.28;4952407;28;20031;-76
2022/03/17 10:16:36;;;;;;;36.03;18.67;;;;;;;2.64;100.00;98838.41;4968491;28;20450;-78
2022/03/17 10:19:07;;;;;;;34.60;17.73;;;;;;;2.83;100.00;98845.22;4965573;28;20023;-74
2022/03/17 10:21:34;;;;;;;32.85;17.77;;;;;;;2.60;100.00;98841.97;4960829;28;20395;-76
2022/03/17 10:24:00;;;;;;;34.70;19.17;;;;;;;2.58;100.00;98838.47;4936267;28;20038;-76
2022/03/17 10:26:41;;;;;;;38.35;18.95;;;;;;;2.74;100.00;98835.66;4969510;28;20025;-76
2022/03/17 10:29:10;;;;;;;34.53;17.92;;;;;;;2.63;100.00;98837.53;4957796;28;20035;-76
2022/03/17 10:31:59;;;;;;;51.45;25.60;;;;;;;2.71;100.00;98838.31;4969454;28;20046;-76
2022/03/17 10:34:36;;;;;;;42.85;22.75;;;;;;;2.86;100.00;98845.19;4963805;28;20173;-76
2022/03/17 10:37:07;;;;;;;60.47;31.75;;;;;;;3.02;100.00;98843.28;4951940;28;20081;-76
2022/03/17 10:39:38;;;;;;;50.67;28.52;;;;;;;3.05;100.00;98835.31;4965342;28;20027;-76
2022/03/17 10:42:10;;;;;;;36.90;18.10;;;;;;;2.99;100.00;98851.22;4952139;28;20475;-76
2022/03/17 10:44:39;;;;;;;29.35;15.10;;;;;;;2.76;100.00;98847.97;4959955;28;20031;-76
2022/03/17 10:47:05;;;;;;;37.35;19.15;;;;;;;2.63;100.00;98842.81;4951959;28;20036;-76
2022/03/17 10:49:31;;;;;;;42.03;22.15;;;;;;;2.59;100.00;98843.72;4947719;28;20040;-76
2022/03/17 10:51:57;;;;;;;50.25;23.58;;;;;;;2.83;100.00;98852.31;4935819;28;20085;-76
2022/03/17 10:54:23;;;;;;;43.17;22.92;;;;;;;2.84;100.00;98854.91;4935421;29;20340;-75
2022/03/17 10:57:12;;;;;;;46.47;23.00;;;;;;;3.00;100.00;98845.94;4929356;29;20032;-75
2022/03/17 10:59:43;;;;;;;33.10;17.85;;;;;;;3.06;100.00;98837.06;4933097;29;20070;-76
2022/03/17 11:02:12;;;;;;;33.88;17.60;;;;;;;3.16;100.00;98855.47;4917227;29;20538;-76
2022/03/17 11:04:39;;;;;;;31.75;16.67;;;;;;;3.05;100.00;98843.22;4933217;29;20057;-76
2022/03/17 11:07:07;;;;;;;51.17;26.98;;;;;;;3.09;100.00;98852.88;4933224;29;20031;-75
2022/03/17 11:09:34;;;;;;;51.63;30.27;;;;;;;3.13;100.00;98846.69;4917367;29;20028;-76
2022/03/17 11:12:00;;;;;;;67.63;37.10;;;;;;;3.27;100.00;98852.66;4949118;29;20098;-77
2022/03/17 11:14:26;;;;;;;54.15;29.45;;;;;;;3.25;100.00;98849.19;4933394;29;20059;-77
2022/03/17 11:16:55;;;;;;;51.65;25.83;;;;;;;3.27;100.00;98847.38;4933180;29;20035;-77
2022/03/17 11:19:22;;;;;;;40.95;21.80;;;;;;;3.11;100.00;98841.41;4933438;29;20026;-76
2022/03/17 11:21:57;;;;;;;35.40;17.55;;;;;;;2.62;100.00;98843.69;4932827;29;20032;-75
2022/03/17 11:24:23;;;;;;;51.42;20.13;;;;;;;2.91;100.00;98855.75;4932998;29;20035;-75
2022/03/17 11:26:51;;;;;;;49.00;24.65;;;;;;;2.94;100.00;98838.09;4933171;29;20036;-76
2022/03/17 11:29:18;;;;;;;40.38;23.45;;;;;;;3.12;100.00;98853.75;4917350;29;20546;-77